createdAt,value
2023-03-22T00:01:45.793Z,100581.84
2023-03-22T00:06:47.287Z,100574.19
2023-03-22T00:11:48.827Z,100573.03
2023-03-22T00:16:50.306Z,100568.66
2023-03-22T00:21:51.847Z,100568.22
2023-03-22T00:26:53.383Z,100553.09
2023-03-22T00:31:54.933Z,100543.97
2023-03-22T00:36:56.473Z,100536.75
2023-03-22T00:41:58.163Z,100523.84
2023-03-22T00:46:59.715Z,100524.94
2023-03-22T00:52:01.233Z,100517.94
2023-03-22T00:57:02.882Z,100511.03
2023-03-22T01:02:05.213Z,100498.72
2023-03-22T01:07:06.885Z,100500.31
2023-03-22T01:12:10.816Z,100501.13
2023-03-22T01:17:12.453Z,100486.22
2023-03-22T01:22:14.027Z,100491.78
2023-03-22T01:27:16.382Z,100491.16
2023-03-22T01:32:17.890Z,100486.16
2023-03-22T01:37:19.604Z,100479.00
2023-03-22T01:42:24.534Z,100479.50
2023-03-22T01:47:27.600Z,100466.16
2023-03-22T01:52:29.320Z,100472.19
2023-03-22T01:57:44.683Z,100465.69
2023-03-22T02:03:06.142Z,100454.91
2023-03-22T02:08:18.422Z,100456.63
2023-03-22T02:13:50.766Z,100455.56
2023-03-22T02:19:39.547Z,100441.34
2023-03-22T02:25:03.088Z,100432.09
2023-03-22T02:30:26.560Z,100430.91
2023-03-22T02:35:31.112Z,100429.84
2023-03-22T02:40:50.364Z,100426.78
2023-03-22T02:46:04.445Z,100419.28
2023-03-22T02:51:16.028Z,100415.16
2023-03-22T02:56:44.407Z,100414.41
2023-03-22T03:01:50.828Z,100401.22
2023-03-22T03:06:55.566Z,100396.34
2023-03-22T03:11:57.336Z,100393.44
2023-03-22T03:16:58.865Z,100383.16
2023-03-22T03:22:29.808Z,100380.06
2023-03-22T03:27:56.432Z,100382.06
2023-03-22T03:33:07.855Z,100376.25
2023-03-22T03:38:15.504Z,100376.53
2023-03-22T03:43:17.895Z,100378.69
2023-03-22T03:48:23.131Z,100378.81
2023-03-22T03:53:24.975Z,100372.59
2023-03-22T03:58:26.650Z,100368.69
2023-03-22T04:03:28.234Z,100387.38
2023-03-22T04:08:52.521Z,100386.66
2023-03-22T04:13:57.086Z,100380.72
2023-03-22T04:18:58.811Z,100379.78
2023-03-22T04:24:00.812Z,100382.19
2023-03-22T04:29:06.262Z,100389.16
2023-03-22T04:34:10.609Z,100390.25
2023-03-22T04:39:24.243Z,100387.00
2023-03-22T04:44:44.251Z,100387.59
2023-03-22T04:49:46.496Z,100368.97
2023-03-22T04:54:50.136Z,100373.75
2023-03-22T04:59:52.540Z,100362.75
2023-03-22T05:04:55.619Z,100351.69
2023-03-22T05:10:10.999Z,100355.22
2023-03-22T05:15:14.044Z,100359.44
2023-03-22T05:20:16.617Z,100361.03
2023-03-22T05:25:23.546Z,100335.59
2023-03-22T05:30:25.460Z,100339.84
2023-03-22T05:35:34.978Z,100343.69
2023-03-22T05:40:38.169Z,100343.53
2023-03-22T05:45:40.273Z,100341.69
2023-03-22T05:51:15.674Z,100361.59
2023-03-22T05:56:17.896Z,100365.66
2023-03-22T06:01:21.282Z,100365.69
2023-03-22T06:06:22.815Z,100366.50
2023-03-22T06:11:40.782Z,100361.47
2023-03-22T06:16:43.166Z,100357.88
2023-03-22T06:21:45.120Z,100359.19
2023-03-22T06:26:49.635Z,100360.31
2023-03-22T06:31:51.300Z,100364.59
2023-03-22T06:36:53.672Z,100372.28
2023-03-22T06:42:03.776Z,100372.13
2023-03-22T06:47:06.109Z,100376.38
2023-03-22T06:52:40.157Z,100376.25
2023-03-22T06:57:42.862Z,100375.47
2023-03-22T07:02:44.443Z,100379.31
2023-03-22T07:08:12.254Z,100364.97
2023-03-22T07:13:19.996Z,100372.47
2023-03-22T07:18:23.813Z,100366.19
2023-03-22T07:23:25.557Z,100357.13
2023-03-22T07:28:30.975Z,100362.34
2023-03-22T07:33:34.225Z,100363.34
2023-03-22T07:38:37.110Z,100350.63
2023-03-22T07:43:54.013Z,100331.09
2023-03-22T07:48:58.524Z,100335.25
2023-03-22T07:54:34.111Z,100331.94
2023-03-22T07:59:40.080Z,100339.91
2023-03-22T08:04:44.261Z,100335.81
2023-03-22T08:10:09.301Z,100332.84
2023-03-22T08:15:11.772Z,100335.47
2023-03-22T08:20:13.494Z,100327.88
2023-03-22T08:25:23.081Z,100334.09
2023-03-22T08:30:25.899Z,100342.06
2023-03-22T08:35:28.283Z,100334.94
2023-03-22T08:40:29.978Z,100339.63
2023-03-22T08:45:35.213Z,100333.66
2023-03-22T08:50:43.945Z,100355.09
2023-03-22T08:55:55.481Z,100345.72
2023-03-22T09:01:11.832Z,100362.47
2023-03-22T09:06:24.716Z,100372.53
2023-03-22T09:11:26.387Z,100359.91
2023-03-22T09:16:27.951Z,100352.13
2023-03-22T09:21:30.218Z,100346.50
2023-03-22T09:26:41.891Z,100354.91
2023-03-22T09:31:43.614Z,100347.47
2023-03-22T09:36:51.422Z,100345.16
2023-03-22T09:41:59.352Z,100341.66
2023-03-22T09:47:04.746Z,100326.66
2023-03-22T09:52:13.957Z,100327.53
2023-03-22T09:57:21.494Z,100324.00
2023-03-22T10:02:37.509Z,100319.19
2023-03-22T10:08:06.739Z,100324.34
2023-03-22T10:13:17.417Z,100323.34
2023-03-22T10:18:26.819Z,100316.13
2023-03-22T10:23:53.796Z,100321.22
2023-03-22T10:29:02.764Z,100309.69
2023-03-22T10:34:20.108Z,100311.16
2023-03-22T10:39:39.804Z,100319.25
2023-03-22T10:44:49.340Z,100318.28
2023-03-22T10:49:54.160Z,100310.41
2023-03-22T10:55:00.166Z,100318.84
2023-03-22T11:00:04.927Z,100318.94
2023-03-22T11:05:06.853Z,100322.38
2023-03-22T11:10:08.350Z,100324.81
2023-03-22T11:15:32.553Z,100322.53
2023-03-22T11:20:34.711Z,100321.94
2023-03-22T11:25:44.754Z,100322.03
2023-03-22T11:31:06.865Z,100320.22
2023-03-22T11:36:18.624Z,100325.66
2023-03-22T11:41:23.544Z,100319.00
2023-03-22T11:46:25.723Z,100308.22
2023-03-22T11:51:33.564Z,100315.72
2023-03-22T11:56:39.841Z,100308.69
2023-03-22T12:01:59.630Z,100314.31
2023-03-22T12:07:05.652Z,100305.78
2023-03-22T12:12:14.252Z,100296.41
2023-03-22T12:17:35.493Z,100298.69
2023-03-22T12:22:40.565Z,100301.38
2023-03-22T12:27:47.407Z,100300.22
2023-03-22T12:33:29.074Z,100304.31
2023-03-22T12:38:43.970Z,100290.53
2023-03-22T12:43:55.677Z,100291.28
2023-03-22T12:49:33.067Z,100278.28
2023-03-22T12:54:35.400Z,100278.94
2023-03-22T12:59:37.839Z,100277.97
2023-03-22T13:04:39.309Z,100269.34
2023-03-22T13:09:48.706Z,100277.09
2023-03-22T13:14:50.240Z,100282.88
2023-03-22T13:19:58.491Z,100282.16
2023-03-22T13:25:06.131Z,100283.63
2023-03-22T13:30:32.454Z,100274.13
2023-03-22T13:35:41.602Z,100282.91
2023-03-22T13:41:06.485Z,100272.81
2023-03-22T13:46:27.666Z,100263.38
2023-03-22T13:51:31.799Z,100245.88
2023-03-22T13:56:42.508Z,100256.09
2023-03-22T14:01:52.730Z,100239.03
2023-03-22T14:06:59.976Z,100232.91
2023-03-22T14:12:13.382Z,100233.16
2023-03-22T14:17:42.563Z,100219.72
